Dutchess County Airport Poughkeepsie US
ICAO: KPOU
IATA: POU
Category: Medium
Scheduled Services: No

Elevation: 165 ft
TransAlt. 18000 ft.

Airport Communications:
ASOS:126.75
ATIS:126.75
CLNC DEL:121.8
NEW YORK CNTR:132.75
CTAF:124
GND:121.8
NEW YORK RDO:122.2
TWR:124
UNICOM:122.95

KPOU Zoom In..

If you have problems with the map follow the link
https://www.worldairports.se/pages/airport.php?
ICAO=KPOU

Runways:

(A) RW 06 length 4999 ft width 100 ft
ILS 111.30 / hdg 63

(B) RW 07 length 1358 ft width 100 ft
---- / hdg 63

(C) RW 15 length 2744 ft width 100 ft
---- / hdg 151

(D) RW 24 length 4999 ft width 100 ft
---- / hdg 243

(E) RW 25 length 1358 ft width 100 ft
---- / hdg 243

(F) RW 33 length 2744 ft width 100 ft
---- / hdg 331

Location; KPOU
Day. 05 / Time. 21.53 Zulu
* Altimeter: 29.88
* Temperature: 02° c. 35.6°f.
* Wind from: 320° Speed 11 kn.
Dewpoint: -06° c.
Visibility: 10 Statute Miles.
Clouds: Overcast 7500 ft.

KPOU 052153Z 32011KT 10SM OVC075 02/M06 A2988 RMK AO2 SLP116 T00221056


Wind From 320°
Speed 11 kn.

 
 
jpsmedia worldairports.se 2019   terms of use